Archival Weather

Fukuoka

Fukuoka, Japan (RJFF)

Report from: Monday, August 15, 2022 2:00 AM JST
Current time: Sunday, February 25, 2024 1:23 AM JST

Current weather – Weather history – Daily summaries
Weather forecast

Temperature28.0°C (82.4°F)
Heat index32.7°C (90.9°F)
Dew point25.0°C (77.0°F)
Winds 11 kts (5.7 m/s, 12.7 mph) South-Southeast (150°)
Visibility6.2 mi. (10 km)
Clouds Sky clear
Altimeter29.77 in.Hg (1008 mB)
Relative humidity84 %
Density altitude2,096 ft. (639 m)
Remarks Fully automated report
No clouds detected
No significant changes expected in the next two hours
Flight conditions Visual Meteorological Conditions
Raw dataRJFF 141700Z AUTO 15011KT 9999 NCD 28/25 Q1008 NOSIG
An error has occurred. This application may no longer respond until reloaded. Reload 🗙